sensor_id;sensor_type;location;lat;lon;timestamp;P1;durP1;ratioP1;P2;durP2;ratioP2
7247;SDS011;3665;51.034;13.642;2022-07-29T00:01:57;3.43;;;1.77;;
7247;SDS011;3665;51.034;13.642;2022-07-29T00:06:40;4.07;;;1.70;;
7247;SDS011;3665;51.034;13.642;2022-07-29T00:11:24;3.00;;;1.50;;
7247;SDS011;3665;51.034;13.642;2022-07-29T00:16:08;2.77;;;1.80;;
7247;SDS011;3665;51.034;13.642;2022-07-29T00:20:53;5.57;;;1.83;;
7247;SDS011;3665;51.034;13.642;2022-07-29T00:25:37;4.63;;;1.60;;
7247;SDS011;3665;51.034;13.642;2022-07-29T00:30:21;3.53;;;1.70;;
7247;SDS011;3665;51.034;13.642;2022-07-29T00:35:05;3.97;;;1.80;;
7247;SDS011;3665;51.034;13.642;2022-07-29T00:40:09;4.40;;;1.87;;
7247;SDS011;3665;51.034;13.642;2022-07-29T00:44:53;5.00;;;2.20;;
7247;SDS011;3665;51.034;13.642;2022-07-29T00:49:37;5.43;;;1.83;;
7247;SDS011;3665;51.034;13.642;2022-07-29T00:54:22;3.23;;;2.10;;
7247;SDS011;3665;51.034;13.642;2022-07-29T00:59:07;4.53;;;1.73;;
7247;SDS011;3665;51.034;13.642;2022-07-29T01:03:51;3.50;;;1.80;;
7247;SDS011;3665;51.034;13.642;2022-07-29T01:08:34;2.33;;;1.87;;
7247;SDS011;3665;51.034;13.642;2022-07-29T01:13:19;3.30;;;1.80;;
7247;SDS011;3665;51.034;13.642;2022-07-29T01:18:07;3.63;;;1.90;;
7247;SDS011;3665;51.034;13.642;2022-07-29T01:23:14;7.57;;;2.27;;
7247;SDS011;3665;51.034;13.642;2022-07-29T01:28:17;3.23;;;1.87;;
7247;SDS011;3665;51.034;13.642;2022-07-29T01:33:19;4.23;;;1.93;;
7247;SDS011;3665;51.034;13.642;2022-07-29T01:38:22;4.37;;;2.80;;
7247;SDS011;3665;51.034;13.642;2022-07-29T01:43:11;7.17;;;3.77;;
7247;SDS011;3665;51.034;13.642;2022-07-29T01:47:59;5.43;;;2.83;;
7247;SDS011;3665;51.034;13.642;2022-07-29T01:52:46;6.43;;;3.10;;
7247;SDS011;3665;51.034;13.642;2022-07-29T01:57:39;6.17;;;3.03;;
7247;SDS011;3665;51.034;13.642;2022-07-29T02:02:27;5.07;;;3.23;;
7247;SDS011;3665;51.034;13.642;2022-07-29T02:07:13;5.63;;;2.93;;
7247;SDS011;3665;51.034;13.642;2022-07-29T02:12:00;6.27;;;2.97;;
7247;SDS011;3665;51.034;13.642;2022-07-29T02:16:46;6.87;;;2.90;;
7247;SDS011;3665;51.034;13.642;2022-07-29T02:21:31;8.57;;;2.93;;
7247;SDS011;3665;51.034;13.642;2022-07-29T02:26:18;5.30;;;2.90;;
7247;SDS011;3665;51.034;13.642;2022-07-29T02:31:03;5.60;;;3.27;;
7247;SDS011;3665;51.034;13.642;2022-07-29T02:35:48;5.63;;;4.03;;
7247;SDS011;3665;51.034;13.642;2022-07-29T02:40:34;7.63;;;4.13;;
7247;SDS011;3665;51.034;13.642;2022-07-29T02:45:20;7.20;;;4.27;;
7247;SDS011;3665;51.034;13.642;2022-07-29T02:50:05;5.27;;;4.07;;
7247;SDS011;3665;51.034;13.642;2022-07-29T02:54:55;5.20;;;3.57;;
7247;SDS011;3665;51.034;13.642;2022-07-29T02:59:41;6.03;;;3.87;;
7247;SDS011;3665;51.034;13.642;2022-07-29T03:04:28;6.27;;;3.83;;
7247;SDS011;3665;51.034;13.642;2022-07-29T03:09:13;6.87;;;3.80;;
7247;SDS011;3665;51.034;13.642;2022-07-29T03:13:57;4.77;;;4.23;;
7247;SDS011;3665;51.034;13.642;2022-07-29T03:18:41;6.27;;;5.03;;
7247;SDS011;3665;51.034;13.642;2022-07-29T03:23:26;6.93;;;5.73;;
7247;SDS011;3665;51.034;13.642;2022-07-29T03:28:17;10.23;;;6.87;;
7247;SDS011;3665;51.034;13.642;2022-07-29T03:33:02;12.67;;;7.90;;
7247;SDS011;3665;51.034;13.642;2022-07-29T03:37:54;13.60;;;9.97;;
7247;SDS011;3665;51.034;13.642;2022-07-29T03:42:39;10.93;;;9.17;;
7247;SDS011;3665;51.034;13.642;2022-07-29T03:47:25;13.63;;;8.70;;
7247;SDS011;3665;51.034;13.642;2022-07-29T03:52:30;11.13;;;7.67;;
7247;SDS011;3665;51.034;13.642;2022-07-29T03:57:14;9.43;;;7.77;;
7247;SDS011;3665;51.034;13.642;2022-07-29T04:02:00;16.13;;;8.50;;
7247;SDS011;3665;51.034;13.642;2022-07-29T04:06:46;13.37;;;7.97;;
7247;SDS011;3665;51.034;13.642;2022-07-29T04:11:30;14.33;;;10.53;;
7247;SDS011;3665;51.034;13.642;2022-07-29T04:16:44;15.60;;;9.93;;
7247;SDS011;3665;51.034;13.642;2022-07-29T04:21:29;12.57;;;8.47;;
7247;SDS011;3665;51.034;13.642;2022-07-29T04:26:13;13.40;;;7.33;;
7247;SDS011;3665;51.034;13.642;2022-07-29T04:30:57;15.83;;;8.10;;
7247;SDS011;3665;51.034;13.642;2022-07-29T04:35:41;16.13;;;8.27;;
7247;SDS011;3665;51.034;13.642;2022-07-29T04:40:34;13.33;;;8.83;;
7247;SDS011;3665;51.034;13.642;2022-07-29T04:45:20;12.00;;;8.57;;
7247;SDS011;3665;51.034;13.642;2022-07-29T04:50:06;16.30;;;12.10;;
7247;SDS011;3665;51.034;13.642;2022-07-29T04:54:51;27.07;;;18.80;;
7247;SDS011;3665;51.034;13.642;2022-07-29T04:59:37;26.90;;;18.73;;
7247;SDS011;3665;51.034;13.642;2022-07-29T05:04:22;29.00;;;19.50;;
7247;SDS011;3665;51.034;13.642;2022-07-29T05:09:06;31.60;;;22.67;;
7247;SDS011;3665;51.034;13.642;2022-07-29T05:14:12;24.83;;;20.60;;
7247;SDS011;3665;51.034;13.642;2022-07-29T05:18:58;24.80;;;18.97;;
7247;SDS011;3665;51.034;13.642;2022-07-29T05:23:42;30.70;;;22.50;;
7247;SDS011;3665;51.034;13.642;2022-07-29T05:28:25;39.40;;;29.57;;
7247;SDS011;3665;51.034;13.642;2022-07-29T05:33:09;53.47;;;41.37;;
7247;SDS011;3665;51.034;13.642;2022-07-29T05:38:15;56.77;;;41.20;;
7247;SDS011;3665;51.034;13.642;2022-07-29T05:42:59;81.97;;;58.50;;
7247;SDS011;3665;51.034;13.642;2022-07-29T05:47:42;86.77;;;63.90;;
7247;SDS011;3665;51.034;13.642;2022-07-29T05:52:27;84.93;;;63.67;;
7247;SDS011;3665;51.034;13.642;2022-07-29T05:57:16;91.00;;;64.10;;
7247;SDS011;3665;51.034;13.642;2022-07-29T06:02:00;84.20;;;62.90;;
7247;SDS011;3665;51.034;13.642;2022-07-29T06:06:44;78.20;;;60.77;;
7247;SDS011;3665;51.034;13.642;2022-07-29T06:11:51;70.20;;;52.50;;
7247;SDS011;3665;51.034;13.642;2022-07-29T06:16:36;69.37;;;51.67;;
7247;SDS011;3665;51.034;13.642;2022-07-29T06:21:20;71.53;;;52.40;;
7247;SDS011;3665;51.034;13.642;2022-07-29T06:26:04;60.03;;;47.67;;
7247;SDS011;3665;51.034;13.642;2022-07-29T06:30:48;53.97;;;39.13;;
7247;SDS011;3665;51.034;13.642;2022-07-29T06:35:34;48.73;;;33.10;;
7247;SDS011;3665;51.034;13.642;2022-07-29T06:40:25;45.40;;;36.03;;
7247;SDS011;3665;51.034;13.642;2022-07-29T06:45:35;48.50;;;36.57;;
7247;SDS011;3665;51.034;13.642;2022-07-29T06:50:23;44.00;;;34.43;;
7247;SDS011;3665;51.034;13.642;2022-07-29T06:55:10;44.30;;;32.77;;
7247;SDS011;3665;51.034;13.642;2022-07-29T07:00:06;43.00;;;34.73;;
7247;SDS011;3665;51.034;13.642;2022-07-29T07:04:51;37.97;;;30.20;;
7247;SDS011;3665;51.034;13.642;2022-07-29T07:09:35;40.20;;;30.80;;
7247;SDS011;3665;51.034;13.642;2022-07-29T07:14:24;43.93;;;33.27;;
7247;SDS011;3665;51.034;13.642;2022-07-29T07:19:09;44.67;;;32.83;;
7247;SDS011;3665;51.034;13.642;2022-07-29T07:23:54;41.87;;;33.43;;
7247;SDS011;3665;51.034;13.642;2022-07-29T07:28:39;41.00;;;33.60;;
7247;SDS011;3665;51.034;13.642;2022-07-29T07:33:24;34.90;;;29.77;;
7247;SDS011;3665;51.034;13.642;2022-07-29T07:38:08;36.63;;;28.52;;
7247;SDS011;3665;51.034;13.642;2022-07-29T07:42:51;36.67;;;29.60;;
7247;SDS011;3665;51.034;13.642;2022-07-29T07:47:35;41.22;;;30.33;;
7247;SDS011;3665;51.034;13.642;2022-07-29T07:52:22;42.00;;;32.15;;
7247;SDS011;3665;51.034;13.642;2022-07-29T07:57:06;40.85;;;33.20;;
7247;SDS011;3665;51.034;13.642;2022-07-29T08:01:50;33.92;;;30.23;;
7247;SDS011;3665;51.034;13.642;2022-07-29T08:06:37;38.60;;;31.05;;
7247;SDS011;3665;51.034;13.642;2022-07-29T08:11:22;33.25;;;28.38;;
7247;SDS011;3665;51.034;13.642;2022-07-29T08:16:16;33.03;;;27.45;;
7247;SDS011;3665;51.034;13.642;2022-07-29T08:20:59;37.50;;;28.00;;
7247;SDS011;3665;51.034;13.642;2022-07-29T08:25:43;35.92;;;27.10;;
7247;SDS011;3665;51.034;13.642;2022-07-29T08:30:32;26.67;;;23.80;;
7247;SDS011;3665;51.034;13.642;2022-07-29T08:35:17;29.38;;;19.38;;
7247;SDS011;3665;51.034;13.642;2022-07-29T08:40:03;21.42;;;17.20;;
7247;SDS011;3665;51.034;13.642;2022-07-29T08:44:51;16.98;;;13.63;;
7247;SDS011;3665;51.034;13.642;2022-07-29T08:49:37;18.38;;;14.38;;
7247;SDS011;3665;51.034;13.642;2022-07-29T08:54:20;13.07;;;10.00;;
7247;SDS011;3665;51.034;13.642;2022-07-29T08:59:05;14.65;;;11.65;;
7247;SDS011;3665;51.034;13.642;2022-07-29T09:03:55;12.52;;;10.32;;
7247;SDS011;3665;51.034;13.642;2022-07-29T09:08:42;11.95;;;10.40;;
7247;SDS011;3665;51.034;13.642;2022-07-29T09:13:26;11.35;;;10.25;;
7247;SDS011;3665;51.034;13.642;2022-07-29T09:18:10;13.05;;;10.85;;
7247;SDS011;3665;51.034;13.642;2022-07-29T09:23:11;16.83;;;11.18;;
7247;SDS011;3665;51.034;13.642;2022-07-29T09:28:08;14.73;;;10.90;;
7247;SDS011;3665;51.034;13.642;2022-07-29T09:32:53;12.40;;;9.55;;
7247;SDS011;3665;51.034;13.642;2022-07-29T09:37:37;11.13;;;8.75;;
7247;SDS011;3665;51.034;13.642;2022-07-29T09:42:28;10.80;;;8.32;;
7247;SDS011;3665;51.034;13.642;2022-07-29T09:47:15;9.35;;;7.53;;
7247;SDS011;3665;51.034;13.642;2022-07-29T09:52:00;9.00;;;7.68;;
7247;SDS011;3665;51.034;13.642;2022-07-29T09:56:47;13.02;;;9.35;;
7247;SDS011;3665;51.034;13.642;2022-07-29T10:01:31;12.27;;;8.88;;
7247;SDS011;3665;51.034;13.642;2022-07-29T10:06:16;14.30;;;11.07;;
7247;SDS011;3665;51.034;13.642;2022-07-29T10:11:08;14.52;;;11.38;;
7247;SDS011;3665;51.034;13.642;2022-07-29T10:15:53;14.95;;;12.80;;
7247;SDS011;3665;51.034;13.642;2022-07-29T10:20:37;18.27;;;13.07;;
7247;SDS011;3665;51.034;13.642;2022-07-29T10:25:23;16.45;;;13.70;;
7247;SDS011;3665;51.034;13.642;2022-07-29T10:30:09;15.77;;;12.25;;
7247;SDS011;3665;51.034;13.642;2022-07-29T10:40:03;13.35;;;10.68;;
7247;SDS011;3665;51.034;13.642;2022-07-29T10:45:11;8.80;;;7.00;;
7247;SDS011;3665;51.034;13.642;2022-07-29T10:50:00;10.13;;;6.97;;
7247;SDS011;3665;51.034;13.642;2022-07-29T10:54:45;6.93;;;6.13;;
7247;SDS011;3665;51.034;13.642;2022-07-29T10:59:36;8.60;;;5.20;;
7247;SDS011;3665;51.034;13.642;2022-07-29T11:09:44;7.30;;;4.65;;
7247;SDS011;3665;51.034;13.642;2022-07-29T11:15:12;5.60;;;4.32;;
7247;SDS011;3665;51.034;13.642;2022-07-29T11:25:18;5.20;;;2.50;;
7247;SDS011;3665;51.034;13.642;2022-07-29T11:30:25;3.42;;;2.20;;
7247;SDS011;3665;51.034;13.642;2022-07-29T11:35:33;3.17;;;2.00;;
7247;SDS011;3665;51.034;13.642;2022-07-29T11:40:20;3.33;;;2.38;;
7247;SDS011;3665;51.034;13.642;2022-07-29T11:45:08;2.78;;;2.20;;
7247;SDS011;3665;51.034;13.642;2022-07-29T11:50:15;4.50;;;2.20;;
7247;SDS011;3665;51.034;13.642;2022-07-29T11:55:10;2.13;;;1.92;;
7247;SDS011;3665;51.034;13.642;2022-07-29T11:59:55;3.00;;;1.70;;
7247;SDS011;3665;51.034;13.642;2022-07-29T12:05:01;2.85;;;2.20;;
7247;SDS011;3665;51.034;13.642;2022-07-29T12:09:52;3.50;;;1.90;;
7247;SDS011;3665;51.034;13.642;2022-07-29T12:14:45;2.67;;;2.08;;
7247;SDS011;3665;51.034;13.642;2022-07-29T12:19:29;3.70;;;2.28;;
7247;SDS011;3665;51.034;13.642;2022-07-29T12:24:25;2.20;;;1.90;;
7247;SDS011;3665;51.034;13.642;2022-07-29T12:29:14;2.92;;;1.92;;
7247;SDS011;3665;51.034;13.642;2022-07-29T12:34:22;1.95;;;1.67;;
7247;SDS011;3665;51.034;13.642;2022-07-29T12:39:07;2.92;;;2.10;;
7247;SDS011;3665;51.034;13.642;2022-07-29T12:43:52;2.95;;;2.15;;
7247;SDS011;3665;51.034;13.642;2022-07-29T12:48:37;2.60;;;2.25;;
7247;SDS011;3665;51.034;13.642;2022-07-29T12:53:24;3.15;;;2.10;;
7247;SDS011;3665;51.034;13.642;2022-07-29T12:58:09;3.05;;;2.38;;
7247;SDS011;3665;51.034;13.642;2022-07-29T13:02:54;2.65;;;2.03;;
7247;SDS011;3665;51.034;13.642;2022-07-29T13:07:39;3.05;;;2.28;;
7247;SDS011;3665;51.034;13.642;2022-07-29T13:12:39;3.83;;;2.25;;
7247;SDS011;3665;51.034;13.642;2022-07-29T13:17:39;3.40;;;2.17;;
7247;SDS011;3665;51.034;13.642;2022-07-29T13:22:28;2.90;;;1.90;;
7247;SDS011;3665;51.034;13.642;2022-07-29T13:27:13;3.83;;;1.88;;
7247;SDS011;3665;51.034;13.642;2022-07-29T13:32:01;2.10;;;2.00;;
7247;SDS011;3665;51.034;13.642;2022-07-29T13:36:46;2.78;;;2.40;;
7247;SDS011;3665;51.034;13.642;2022-07-29T13:41:29;4.07;;;1.92;;
7247;SDS011;3665;51.034;13.642;2022-07-29T13:46:13;2.30;;;1.90;;
7247;SDS011;3665;51.034;13.642;2022-07-29T13:50:59;2.85;;;2.22;;
7247;SDS011;3665;51.034;13.642;2022-07-29T13:55:43;1.98;;;1.83;;
7247;SDS011;3665;51.034;13.642;2022-07-29T14:00:30;4.20;;;2.13;;
7247;SDS011;3665;51.034;13.642;2022-07-29T14:05:14;2.53;;;2.17;;
7247;SDS011;3665;51.034;13.642;2022-07-29T14:09:59;2.58;;;1.83;;
7247;SDS011;3665;51.034;13.642;2022-07-29T14:14:43;2.63;;;2.15;;
7247;SDS011;3665;51.034;13.642;2022-07-29T14:19:28;3.50;;;2.10;;
7247;SDS011;3665;51.034;13.642;2022-07-29T14:24:13;3.22;;;2.80;;
7247;SDS011;3665;51.034;13.642;2022-07-29T14:29:03;3.17;;;2.00;;
7247;SDS011;3665;51.034;13.642;2022-07-29T14:33:50;3.10;;;2.40;;
7247;SDS011;3665;51.034;13.642;2022-07-29T14:38:34;2.53;;;2.33;;
7247;SDS011;3665;51.034;13.642;2022-07-29T14:43:18;3.28;;;2.25;;
7247;SDS011;3665;51.034;13.642;2022-07-29T14:48:04;3.72;;;2.40;;
7247;SDS011;3665;51.034;13.642;2022-07-29T14:52:48;2.88;;;2.50;;
7247;SDS011;3665;51.034;13.642;2022-07-29T14:57:33;6.75;;;2.47;;
7247;SDS011;3665;51.034;13.642;2022-07-29T15:02:20;2.63;;;2.05;;
7247;SDS011;3665;51.034;13.642;2022-07-29T15:07:17;3.10;;;2.20;;
7247;SDS011;3665;51.034;13.642;2022-07-29T15:12:01;3.10;;;2.03;;
7247;SDS011;3665;51.034;13.642;2022-07-29T15:16:46;2.42;;;2.22;;
7247;SDS011;3665;51.034;13.642;2022-07-29T15:21:33;4.18;;;2.42;;
7247;SDS011;3665;51.034;13.642;2022-07-29T15:26:39;2.83;;;2.20;;
7247;SDS011;3665;51.034;13.642;2022-07-29T15:31:24;3.58;;;2.80;;
7247;SDS011;3665;51.034;13.642;2022-07-29T15:36:08;3.08;;;2.00;;
7247;SDS011;3665;51.034;13.642;2022-07-29T15:41:13;2.10;;;1.90;;
7247;SDS011;3665;51.034;13.642;2022-07-29T15:46:02;3.08;;;2.33;;
7247;SDS011;3665;51.034;13.642;2022-07-29T15:51:03;5.38;;;2.58;;
7247;SDS011;3665;51.034;13.642;2022-07-29T15:55:47;3.72;;;2.17;;
7247;SDS011;3665;51.034;13.642;2022-07-29T16:00:31;2.95;;;2.67;;
7247;SDS011;3665;51.034;13.642;2022-07-29T16:05:16;2.58;;;2.38;;
7247;SDS011;3665;51.034;13.642;2022-07-29T16:10:01;6.40;;;2.50;;
7247;SDS011;3665;51.034;13.642;2022-07-29T16:14:46;3.78;;;2.20;;
7247;SDS011;3665;51.034;13.642;2022-07-29T16:19:53;2.92;;;2.50;;
7247;SDS011;3665;51.034;13.642;2022-07-29T16:24:47;4.30;;;2.72;;
7247;SDS011;3665;51.034;13.642;2022-07-29T16:29:40;4.10;;;2.92;;
7247;SDS011;3665;51.034;13.642;2022-07-29T16:35:00;3.97;;;3.40;;
7247;SDS011;3665;51.034;13.642;2022-07-29T16:40:08;6.82;;;6.13;;
7247;SDS011;3665;51.034;13.642;2022-07-29T16:45:10;3.95;;;3.65;;
7247;SDS011;3665;51.034;13.642;2022-07-29T16:49:54;5.03;;;4.30;;
7247;SDS011;3665;51.034;13.642;2022-07-29T16:54:38;8.13;;;6.25;;
7247;SDS011;3665;51.034;13.642;2022-07-29T16:59:24;10.15;;;7.00;;
7247;SDS011;3665;51.034;13.642;2022-07-29T17:04:08;10.95;;;7.65;;
7247;SDS011;3665;51.034;13.642;2022-07-29T17:08:56;9.63;;;7.57;;
7247;SDS011;3665;51.034;13.642;2022-07-29T17:13:40;7.13;;;6.38;;
7247;SDS011;3665;51.034;13.642;2022-07-29T17:18:25;8.52;;;7.50;;
7247;SDS011;3665;51.034;13.642;2022-07-29T17:23:09;7.97;;;6.30;;
7247;SDS011;3665;51.034;13.642;2022-07-29T17:27:54;7.95;;;6.03;;
7247;SDS011;3665;51.034;13.642;2022-07-29T17:32:42;5.80;;;5.30;;
7247;SDS011;3665;51.034;13.642;2022-07-29T17:37:27;9.02;;;5.93;;
7247;SDS011;3665;51.034;13.642;2022-07-29T17:42:12;6.05;;;5.38;;
7247;SDS011;3665;51.034;13.642;2022-07-29T17:46:57;6.30;;;3.72;;
7247;SDS011;3665;51.034;13.642;2022-07-29T17:51:41;3.97;;;3.47;;
7247;SDS011;3665;51.034;13.642;2022-07-29T17:56:27;5.53;;;3.55;;
7247;SDS011;3665;51.034;13.642;2022-07-29T18:01:11;5.22;;;3.50;;
7247;SDS011;3665;51.034;13.642;2022-07-29T18:05:56;6.22;;;4.00;;
7247;SDS011;3665;51.034;13.642;2022-07-29T18:10:41;5.53;;;3.53;;
7247;SDS011;3665;51.034;13.642;2022-07-29T18:15:28;8.82;;;3.67;;
7247;SDS011;3665;51.034;13.642;2022-07-29T18:20:12;5.28;;;3.78;;
7247;SDS011;3665;51.034;13.642;2022-07-29T18:25:01;7.43;;;4.30;;
7247;SDS011;3665;51.034;13.642;2022-07-29T18:29:51;6.13;;;3.95;;
7247;SDS011;3665;51.034;13.642;2022-07-29T18:34:37;6.55;;;4.18;;
7247;SDS011;3665;51.034;13.642;2022-07-29T18:39:22;5.05;;;3.95;;
7247;SDS011;3665;51.034;13.642;2022-07-29T18:44:06;5.43;;;3.20;;
7247;SDS011;3665;51.034;13.642;2022-07-29T18:48:52;3.92;;;3.42;;
7247;SDS011;3665;51.034;13.642;2022-07-29T18:53:39;3.90;;;3.30;;
7247;SDS011;3665;51.034;13.642;2022-07-29T18:58:23;4.50;;;3.72;;
7247;SDS011;3665;51.034;13.642;2022-07-29T19:03:06;4.47;;;3.50;;
7247;SDS011;3665;51.034;13.642;2022-07-29T19:07:55;6.50;;;3.67;;
7247;SDS011;3665;51.034;13.642;2022-07-29T19:12:42;6.10;;;3.70;;
7247;SDS011;3665;51.034;13.642;2022-07-29T19:17:26;8.03;;;3.33;;
7247;SDS011;3665;51.034;13.642;2022-07-29T19:22:10;3.90;;;3.50;;
7247;SDS011;3665;51.034;13.642;2022-07-29T19:26:55;4.67;;;3.30;;
7247;SDS011;3665;51.034;13.642;2022-07-29T19:31:42;5.70;;;3.10;;
7247;SDS011;3665;51.034;13.642;2022-07-29T19:36:27;5.43;;;3.30;;
7247;SDS011;3665;51.034;13.642;2022-07-29T19:41:15;6.57;;;3.33;;
7247;SDS011;3665;51.034;13.642;2022-07-29T19:45:59;3.40;;;3.10;;
7247;SDS011;3665;51.034;13.642;2022-07-29T19:50:45;4.77;;;2.73;;
7247;SDS011;3665;51.034;13.642;2022-07-29T19:55:30;5.93;;;2.93;;
7247;SDS011;3665;51.034;13.642;2022-07-29T20:00:18;2.97;;;2.63;;
7247;SDS011;3665;51.034;13.642;2022-07-29T20:05:05;3.20;;;2.70;;
7247;SDS011;3665;51.034;13.642;2022-07-29T20:09:51;3.33;;;2.70;;
7247;SDS011;3665;51.034;13.642;2022-07-29T20:14:38;3.40;;;3.03;;
7247;SDS011;3665;51.034;13.642;2022-07-29T20:19:26;4.17;;;3.00;;
7247;SDS011;3665;51.034;13.642;2022-07-29T20:24:11;6.23;;;3.23;;
7247;SDS011;3665;51.034;13.642;2022-07-29T20:28:57;3.90;;;2.80;;
7247;SDS011;3665;51.034;13.642;2022-07-29T20:33:41;6.10;;;3.50;;
7247;SDS011;3665;51.034;13.642;2022-07-29T20:38:25;4.20;;;3.23;;
7247;SDS011;3665;51.034;13.642;2022-07-29T20:43:09;4.33;;;2.97;;
7247;SDS011;3665;51.034;13.642;2022-07-29T20:47:55;5.83;;;3.43;;
7247;SDS011;3665;51.034;13.642;2022-07-29T20:52:39;4.70;;;3.30;;
7247;SDS011;3665;51.034;13.642;2022-07-29T20:57:26;4.03;;;3.10;;
7247;SDS011;3665;51.034;13.642;2022-07-29T21:02:20;4.47;;;3.20;;
7247;SDS011;3665;51.034;13.642;2022-07-29T21:07:09;4.90;;;3.20;;
7247;SDS011;3665;51.034;13.642;2022-07-29T21:11:53;5.13;;;3.30;;
7247;SDS011;3665;51.034;13.642;2022-07-29T21:16:37;3.50;;;3.20;;
7247;SDS011;3665;51.034;13.642;2022-07-29T21:21:22;3.67;;;2.90;;
7247;SDS011;3665;51.034;13.642;2022-07-29T21:26:10;6.50;;;3.10;;
7247;SDS011;3665;51.034;13.642;2022-07-29T21:30:55;4.90;;;3.10;;
7247;SDS011;3665;51.034;13.642;2022-07-29T21:35:40;6.00;;;3.30;;
7247;SDS011;3665;51.034;13.642;2022-07-29T21:40:44;4.13;;;3.20;;
7247;SDS011;3665;51.034;13.642;2022-07-29T21:45:31;6.53;;;3.97;;
7247;SDS011;3665;51.034;13.642;2022-07-29T21:50:16;3.57;;;3.10;;
7247;SDS011;3665;51.034;13.642;2022-07-29T21:55:00;5.63;;;3.03;;
7247;SDS011;3665;51.034;13.642;2022-07-29T21:59:44;8.63;;;3.60;;
7247;SDS011;3665;51.034;13.642;2022-07-29T22:04:30;6.57;;;3.43;;
7247;SDS011;3665;51.034;13.642;2022-07-29T22:09:16;5.77;;;3.20;;
7247;SDS011;3665;51.034;13.642;2022-07-29T22:14:01;5.33;;;3.50;;
7247;SDS011;3665;51.034;13.642;2022-07-29T22:18:51;4.10;;;3.70;;
7247;SDS011;3665;51.034;13.642;2022-07-29T22:23:36;5.50;;;3.30;;
7247;SDS011;3665;51.034;13.642;2022-07-29T22:28:21;7.03;;;3.40;;
7247;SDS011;3665;51.034;13.642;2022-07-29T22:33:05;5.70;;;3.37;;
7247;SDS011;3665;51.034;13.642;2022-07-29T22:37:58;5.03;;;3.70;;
7247;SDS011;3665;51.034;13.642;2022-07-29T22:42:48;5.87;;;4.07;;
7247;SDS011;3665;51.034;13.642;2022-07-29T22:47:33;5.53;;;4.10;;
7247;SDS011;3665;51.034;13.642;2022-07-29T22:52:29;3.87;;;3.57;;
7247;SDS011;3665;51.034;13.642;2022-07-29T22:57:13;5.60;;;4.43;;
7247;SDS011;3665;51.034;13.642;2022-07-29T23:02:03;7.47;;;4.73;;
7247;SDS011;3665;51.034;13.642;2022-07-29T23:06:50;7.87;;;5.37;;
7247;SDS011;3665;51.034;13.642;2022-07-29T23:11:34;8.90;;;8.00;;
7247;SDS011;3665;51.034;13.642;2022-07-29T23:16:18;14.10;;;9.07;;
7247;SDS011;3665;51.034;13.642;2022-07-29T23:21:09;5.50;;;4.97;;
7247;SDS011;3665;51.034;13.642;2022-07-29T23:25:57;7.47;;;6.13;;
7247;SDS011;3665;51.034;13.642;2022-07-29T23:30:41;10.03;;;6.53;;
7247;SDS011;3665;51.034;13.642;2022-07-29T23:35:27;9.27;;;5.70;;
7247;SDS011;3665;51.034;13.642;2022-07-29T23:40:16;7.70;;;5.63;;
7247;SDS011;3665;51.034;13.642;2022-07-29T23:45:10;6.23;;;4.90;;
7247;SDS011;3665;51.034;13.642;2022-07-29T23:50:10;5.10;;;4.60;;
7247;SDS011;3665;51.034;13.642;2022-07-29T23:54:54;5.83;;;4.67;;
